Etusivu
METAR-TAF:

METAR-TAF

Lentoasemat :

Skellefteå, Ruotsi

Skellefteån lentoasema

Leveyspiiri: 64-38N, Pituuspiiri: 021-05E, korkeus merenpinnasta: 49 m

Tämänhetkinen sää

Tämä raportti tehtiin 27 minuuttia sitten, kello 15.20 UTC
Tuuli 3 kn kaakosta
Lämpötila 10°C
Kosteus 93%
Ilmanpaine 1030 hPa
Näkyvyys 10 km tai enemmän
Hajanaisia pilviä 800 ft:n korkeudessa
Hajonneita pilviä 1000 ft:n korkeudessa

METAR: ESNS 211520Z 13003KT 9999 SCT008 BKN010 10/09 Q1030

Aika: 17:47 (15:47 UTC)

Sääennuste

Tämä raportti tehtiin 1 tunti ja 17 minuuttia sitten, kello 14.30 UTC
Ennuste voimassa 21. päivästä klo 15 UTC - 21. päivään klo 22 UTC
Tuuli 7 kn kaakosta
Näkyvyys 10 km tai enemmän
Muutamia pilviä 700 ft:n korkeudessa
Hajonneita pilviä 2000 ft:n korkeudessa
Ajoittain
21. päivästä klo 15 UTC - 21. päivään klo 17 UTC
Hajonneita pilviä 800 ft:n korkeudessa

TAF: ESNS 211430Z 2115/2122 13007KT 9999 FEW007 BKN020 TEMPO 2115/2117 BKN008

Säähavainnot ja -ennusteet yli 4000 lentoasemalta (METAR- ja TAF-raportit).

Käytössä olevat sääasemat on merkitty karttaan keltaisilla ja punaisilla pisteillä.

Aseta hiiri pisteen päälle nähdäksesi sääaseman nimen.

Klikkaa sitten nähdäksesi säähavainnot ja -ennusteet.

Kartan vaihtaminen: klikkaa mustalla rastilla varustettuja vihreitä pisteitä, niin voit zoomata sisään; viivalla varustettua vihreää pistettä, niin voit zoomata ulos tai vihreitä nuolia, niin pääset viereisille kartoille.


METAR-TAF: